Here is the Quick Look data you requested

The Data originates at the National Weather Service, and is made available here by the UAlbany Department of Atmospheric and Environmental Sciences

Surface Observations

PHHI 231758Z AUTO 08005KT 9SM -DZ SCT024 BKN036 BKN045 22/19 A3007 RMK AO2
 RAE22DZB22E28DZB40E50DZB51E52DZB55 SLP173 P0003 60026 T02150191 10216 20195
 53008 $=
PHJH 231750Z 05015KT 15SM FEW030 24/18 A3006=
PHJR 231753Z 05006KT 10SM -RA SCT055 BKN065 25/19 A3008 RMK AO2 RAB51 SLP192
 P0000 60000 T02500189 10256 20222 53010=
PHKO 231753Z 15007KT 10SM FEW060 SCT100 26/16 A2999 RMK AO2 SLP155 T02610161
 10267 20211 51012=
PHLI 231753Z 06014KT 10SM SCT025 SCT033 27/20 A3010 RMK AO2 SLP190 T02670200
 10267 20244 53012=
PHMK 231754Z 06014G21KT 5SM -RA BR FEW037 SCT044 BKN050 23/21 A3007 RMK AO2
 RAB02 SLP187 P0001 60003 T02280206 10233 20211 53012=
PHNL 231753Z 06013G19KT 10SM FEW025 SCT048 BKN070 24/19 A3006 RMK AO2 RAB18E48
 SLP179 P0000 60001 T02390189 10239 20217 53009=
PHNY 231756Z AUTO 06008KT 10SM FEW031 23/16 A3010 RMK AO2 SLP173 T02280161
 10228 20189 53010=
PHOG 231754Z 05008KT 10SM CLR 25/19 A3006 RMK AO2 SLP182 60003 T02500194 10250
 20217 53010=
PHSF 231756Z AUTO 00000KT 10SM FEW070 16/M03 A3030 RMK AO2 SLP155 T01601029
 10160 20063 52011 $=
PHTO 231753Z 30005KT 10SM FEW030 SCT041 25/18 A3006 RMK AO2 SLP178 60004
 T02500183 10250 20183 53010=